createdAt,value
2022-11-05T15:02:24.848Z,4.93
2022-11-05T15:05:33.177Z,3.93
2022-11-05T15:08:21.722Z,2.47
2022-11-05T15:10:51.538Z,2.83
2022-11-05T15:13:30.633Z,4.30
2022-11-05T15:16:00.322Z,4.63
2022-11-05T15:18:34.550Z,3.60
2022-11-05T15:21:04.794Z,3.90
2022-11-05T15:23:42.088Z,3.03
2022-11-05T15:26:15.497Z,3.60
2022-11-05T15:28:47.117Z,4.53
2022-11-05T15:31:33.032Z,3.90
2022-11-05T15:34:18.975Z,5.13
2022-11-05T15:36:52.893Z,4.03
2022-11-05T15:39:29.961Z,7.47
2022-11-05T15:41:59.399Z,4.47
2022-11-05T15:44:30.160Z,3.80
2022-11-05T15:47:09.768Z,6.23
2022-11-05T15:49:39.524Z,6.00
2022-11-05T15:52:09.316Z,4.27
2022-11-05T15:54:37.894Z,6.27
2022-11-05T15:57:06.555Z,5.90
2022-11-05T15:59:35.540Z,8.33
2022-11-05T16:02:20.780Z,5.23
2022-11-05T16:04:51.287Z,5.30
2022-11-05T16:07:20.245Z,5.40
2022-11-05T16:09:54.573Z,8.07
2022-11-05T16:12:33.310Z,9.23
2022-11-05T16:15:05.416Z,6.27
2022-11-05T16:17:48.775Z,6.03
2022-11-05T16:20:23.846Z,10.00
2022-11-05T16:22:55.457Z,8.33
2022-11-05T16:25:33.051Z,9.00
2022-11-05T16:28:01.801Z,8.00
2022-11-05T16:30:30.320Z,8.98
2022-11-05T16:33:06.382Z,10.77
2022-11-05T16:35:41.957Z,8.50
2022-11-05T16:38:13.091Z,6.70
2022-11-05T16:40:41.358Z,8.37
2022-11-05T16:43:18.078Z,7.00
2022-11-05T16:45:46.240Z,7.43
2022-11-05T16:48:15.599Z,11.07
2022-11-05T16:50:45.889Z,7.97
2022-11-05T16:53:13.983Z,9.90
2022-11-05T16:55:44.999Z,8.70
2022-11-05T16:58:20.710Z,8.80
2022-11-05T17:00:50.365Z,11.03
2022-11-05T17:03:18.690Z,9.38
2022-11-05T17:05:48.349Z,7.83
2022-11-05T17:08:16.795Z,8.85
2022-11-05T17:10:45.087Z,8.57
2022-11-05T17:13:16.415Z,7.87
2022-11-05T17:15:46.372Z,9.00
2022-11-05T17:18:18.889Z,12.02
2022-11-05T17:20:50.703Z,11.20
2022-11-05T17:23:20.188Z,9.90
2022-11-05T17:25:50.627Z,8.20
2022-11-05T17:28:19.878Z,7.80
2022-11-05T17:30:52.884Z,10.07
2022-11-05T17:33:22.623Z,9.80
2022-11-05T17:35:52.971Z,9.63
2022-11-05T17:38:21.931Z,7.27
2022-11-05T17:40:50.717Z,9.00
2022-11-05T17:43:19.146Z,10.80
2022-11-05T17:45:49.395Z,14.07
2022-11-05T17:48:17.997Z,9.87
2022-11-05T17:50:47.983Z,8.17
2022-11-05T17:53:19.497Z,12.23
2022-11-05T17:55:48.431Z,7.80
2022-11-05T17:58:16.700Z,9.63
2022-11-05T18:00:45.878Z,8.70
2022-11-05T18:03:14.854Z,6.53
2022-11-05T18:05:44.154Z,7.00
2022-11-05T18:08:12.677Z,9.97
2022-11-05T18:10:43.086Z,10.30
2022-11-05T18:13:12.236Z,6.60
2022-11-05T18:15:41.374Z,9.93
2022-11-05T18:18:10.182Z,11.73
2022-11-05T18:20:38.498Z,8.03
2022-11-05T18:23:06.711Z,7.77
2022-11-05T18:25:34.743Z,9.73
2022-11-05T18:28:04.692Z,9.20
2022-11-05T18:30:32.777Z,10.13
2022-11-05T18:33:01.248Z,9.60
2022-11-05T18:35:29.320Z,10.50
2022-11-05T18:37:57.465Z,9.27
2022-11-05T18:40:25.786Z,10.47
2022-11-05T18:42:53.853Z,10.97
2022-11-05T18:45:28.404Z,10.60
2022-11-05T18:47:58.004Z,12.73
2022-11-05T18:50:25.960Z,10.57
2022-11-05T18:52:53.929Z,9.70
2022-11-05T18:55:22.331Z,8.40
2022-11-05T18:57:50.409Z,13.53
2022-11-05T19:00:18.516Z,13.10
2022-11-05T19:02:48.076Z,15.47
2022-11-05T19:05:31.929Z,13.37
2022-11-05T19:08:00.127Z,11.40
2022-11-05T19:10:28.311Z,10.93
2022-11-05T19:12:56.447Z,8.53
2022-11-05T19:15:24.442Z,9.23
2022-11-05T19:17:54.703Z,10.40
2022-11-05T19:20:22.769Z,12.80
2022-11-05T19:22:50.832Z,10.80
2022-11-05T19:25:18.894Z,11.77
2022-11-05T19:27:47.111Z,15.67
2022-11-05T19:30:15.189Z,12.73
2022-11-05T19:32:43.140Z,11.47
2022-11-05T19:35:12.639Z,13.40
2022-11-05T19:37:40.965Z,10.53
2022-11-05T19:40:10.601Z,11.90
2022-11-05T19:42:38.790Z,9.50
2022-11-05T19:45:30.426Z,10.70
2022-11-05T19:47:55.923Z,10.50
2022-11-05T19:50:25.888Z,10.60
2022-11-05T19:52:53.820Z,9.67
2022-11-05T19:55:21.942Z,11.43
2022-11-05T19:57:49.874Z,9.47
2022-11-05T20:00:18.327Z,11.20
2022-11-05T20:02:46.880Z,9.93
2022-11-05T20:05:15.126Z,9.27
2022-11-05T20:07:48.292Z,9.00
2022-11-05T20:10:20.550Z,10.90
2022-11-05T20:12:48.549Z,7.47
2022-11-05T20:15:18.415Z,13.90
2022-11-05T20:17:49.783Z,12.50
2022-11-05T20:20:17.786Z,11.83
2022-11-05T20:22:47.442Z,12.13
2022-11-05T20:25:15.324Z,10.73
2022-11-05T20:27:43.393Z,10.20
2022-11-05T20:30:12.005Z,11.17
2022-11-05T20:32:39.887Z,11.10
2022-11-05T20:35:09.044Z,10.47
2022-11-05T20:37:37.001Z,10.77
2022-11-05T20:40:07.619Z,13.37
2022-11-05T20:42:37.339Z,11.60
2022-11-05T20:45:05.780Z,13.60
2022-11-05T20:47:33.950Z,17.40
2022-11-05T20:50:04.131Z,13.80
2022-11-05T20:52:32.460Z,14.23
2022-11-05T20:55:01.403Z,11.37
2022-11-05T20:57:30.768Z,14.43
2022-11-05T20:59:58.656Z,14.40
2022-11-05T21:02:26.725Z,13.40
2022-11-05T21:04:54.710Z,14.30
2022-11-05T21:07:22.552Z,16.27
2022-11-05T21:09:50.599Z,15.53
2022-11-05T21:12:21.346Z,16.97
2022-11-05T21:14:50.988Z,15.00
2022-11-05T21:17:19.212Z,14.60
2022-11-05T21:19:47.632Z,18.30
2022-11-05T21:22:16.141Z,19.10
2022-11-05T21:24:44.400Z,15.80
2022-11-05T21:27:12.293Z,11.40
2022-11-05T21:29:40.192Z,14.57
2022-11-05T21:32:09.814Z,19.73
2022-11-05T21:34:37.709Z,21.77
2022-11-05T21:37:07.170Z,15.53
2022-11-05T21:39:35.330Z,15.57
2022-11-05T21:42:03.871Z,16.57
2022-11-05T21:44:31.796Z,12.20
2022-11-05T21:47:00.023Z,14.73
2022-11-05T21:49:29.465Z,19.57
2022-11-05T21:52:14.998Z,12.60
2022-11-05T21:55:00.578Z,17.03
2022-11-05T21:57:42.388Z,15.90
2022-11-05T22:00:12.363Z,15.43
2022-11-05T22:02:40.398Z,15.52
2022-11-05T22:05:10.555Z,15.37
2022-11-05T22:07:40.353Z,14.43
2022-11-05T22:10:15.616Z,17.90
2022-11-05T22:12:44.769Z,19.87
2022-11-05T22:15:14.010Z,17.17
2022-11-05T22:17:46.458Z,16.33
2022-11-05T22:20:17.753Z,19.20
2022-11-05T22:22:46.308Z,17.13
2022-11-05T22:25:15.562Z,17.30
2022-11-05T22:27:44.319Z,15.37
2022-11-05T22:30:14.380Z,14.13
2022-11-05T22:32:42.683Z,15.40
2022-11-05T22:35:11.586Z,17.50
2022-11-05T22:37:41.294Z,16.23
2022-11-05T22:40:10.160Z,18.93
2022-11-05T22:42:38.345Z,16.00
2022-11-05T22:45:08.143Z,14.60
2022-11-05T22:47:36.449Z,18.17
2022-11-05T22:50:05.323Z,16.30
2022-11-05T22:52:33.895Z,18.80
2022-11-05T22:55:05.515Z,20.40
2022-11-05T22:57:33.892Z,20.53
2022-11-05T23:00:02.223Z,19.83
2022-11-05T23:02:30.873Z,16.20
2022-11-05T23:04:59.245Z,18.03
2022-11-05T23:07:44.942Z,20.30
2022-11-05T23:10:31.563Z,16.57
2022-11-05T23:12:59.606Z,15.23
2022-11-05T23:15:44.887Z,15.60
2022-11-05T23:18:30.832Z,15.63
2022-11-05T23:21:21.836Z,21.07
2022-11-05T23:24:05.981Z,17.33
2022-11-05T23:26:52.569Z,18.53
2022-11-05T23:29:22.551Z,14.50
2022-11-05T23:32:10.473Z,15.50
2022-11-05T23:34:38.560Z,17.67
2022-11-05T23:37:24.278Z,20.07
2022-11-05T23:39:52.168Z,19.30
2022-11-05T23:42:39.539Z,17.63
2022-11-05T23:45:34.266Z,15.03
2022-11-05T23:48:17.918Z,17.97
2022-11-05T23:50:48.345Z,17.05
2022-11-05T23:53:16.593Z,19.70
2022-11-05T23:55:45.020Z,16.40
2022-11-05T23:58:15.024Z,20.47
